Time;durP1;ratioP1;P1;durP2;ratioP2;P2;SDS_P1;SDS_P2;PMS_P1;PMS_P2;Temp;Humidity;BMP_temperature;BMP_pressure;BME280_temperature;BME280_humidity;BME280_pressure;Samples;Min_cycle;Max_cycle;Signal;HPM_P1;HPM_P2
2023/02/21 02:15:56;;;;;;;;;;;;;;;6.75;68.48;99606.62;107054;1257;123663;-83
2023/02/21 02:18:44;;;;;;;;;;;;;;;6.74;68.41;99597.88;107187;1257;62274;-83
2023/02/21 02:21:11;;;;;;;;;;;;;;;6.72;68.38;99606.18;107148;1262;124435;-84
2023/02/21 02:23:57;;;;;;;;;;;;;;;6.71;68.45;99604.77;107272;1261;73198;-84
2023/02/21 02:26:43;;;;;;;;;;;;;;;6.68;68.63;99607.36;107283;1260;64832;-84
2023/02/21 02:29:31;;;;;;;;;;;;;;;6.68;68.57;99611.34;107321;1262;73202;-83
2023/02/21 02:32:07;;;;;;;;;;;;;;;6.69;68.52;99615.55;107367;1260;60455;-84
2023/02/21 02:34:50;;;;;;;;;;;;;;;6.69;68.59;99611.55;107159;1257;123703;-83
2023/02/21 02:37:20;;;;;;;;;;;;;;;6.71;68.55;99605.83;107103;1259;73809;-84
2023/02/21 02:39:56;;;;;;;;;;;;;;;6.71;68.56;99608.45;107037;1260;124157;-83
2023/02/21 02:42:26;;;;;;;;;;;;;;;6.71;68.49;99606.52;107400;1257;73124;-84
2023/02/21 02:44:59;;;;;;;;;;;;;;;6.71;68.53;99601.11;107494;1259;124578;-84
2023/02/21 02:47:28;;;;;;;;;;;;;;;6.69;68.48;99603.87;107467;1258;61256;-83
2023/02/21 02:49:57;;;;;;;;;;;;;;;6.68;68.35;99611.87;107641;1257;74804;-84
2023/02/21 02:52:24;;;;;;;;;;;;;;;6.66;68.27;99602.41;107321;1257;124285;-83
2023/02/21 02:55:04;;;;;;;;;;;;;;;6.60;68.23;99595.13;107528;1258;71461;-84
2023/02/21 02:57:39;;;;;;;;;;;;;;;6.55;68.13;99596.41;107173;1258;124298;-83
2023/02/21 03:00:09;;;;;;;;;;;;;;;6.58;68.29;99605.20;107424;1257;61027;-83
2023/02/21 03:02:49;;;;;;;;;;;;;;;6.60;68.26;99612.91;107624;1257;74646;-83
2023/02/21 03:05:37;;;;;;;;;;;;;;;6.63;68.21;99615.41;107681;1262;67161;-83
2023/02/21 03:08:14;;;;;;;;;;;;;;;6.62;68.28;99599.87;107676;1258;72496;-83
2023/02/21 03:10:49;;;;;;;;;;;;;;;6.62;68.24;99607.71;107365;1262;123945;-83
2023/02/21 03:13:35;;;;;;;;;;;;;;;6.61;68.26;99612.59;107599;1265;61323;-83
2023/02/21 03:16:09;;;;;;;;;;;;;;;6.62;68.33;99623.93;107498;1257;124585;-83
2023/02/21 03:18:40;;;;;;;;;;;;;;;6.64;68.32;99623.10;107456;1260;66181;-83
2023/02/21 03:21:08;;;;;;;;;;;;;;;6.66;68.36;99625.59;107236;1262;123720;-83
2023/02/21 03:23:35;;;;;;;;;;;;;;;6.67;68.41;99627.88;107236;1257;61295;-83
2023/02/21 03:26:03;;;;;;;;;;;;;;;6.67;68.31;99630.33;107256;1260;59958;-83
2023/02/21 03:28:30;;;;;;;;;;;;;;;6.66;68.39;99634.13;107277;1258;123835;-83
2023/02/21 03:30:58;;;;;;;;;;;;;;;6.64;68.30;99645.41;107431;1259;67623;-83
2023/02/21 03:33:26;;;;;;;;;;;;;;;6.63;68.34;99656.90;107354;1258;124640;-83
2023/02/21 03:36:09;;;;;;;;;;;;;;;6.63;68.32;99668.08;107449;1258;60440;-83
2023/02/21 03:38:37;;;;;;;;;;;;;;;6.64;68.35;99673.48;107535;1260;61266;-83
2023/02/21 03:41:07;;;;;;;;;;;;;;;6.64;68.24;99668.95;107374;1261;124869;-83
2023/02/21 03:43:34;;;;;;;;;;;;;;;6.65;68.24;99675.25;107411;1256;65989;-83
2023/02/21 03:46:01;;;;;;;;;;;;;;;6.66;68.00;99678.77;107244;1260;124080;-83
2023/02/21 03:48:31;;;;;;;;;;;;;;;6.67;67.68;99671.48;107471;1260;61011;-83
2023/02/21 03:51:00;;;;;;;;;;;;;;;6.69;67.57;99690.18;107263;1256;123782;-85
2023/02/21 03:53:28;;;;;;;;;;;;;;;6.71;67.24;99680.62;107396;1257;74441;-84
2023/02/21 03:55:56;;;;;;;;;;;;;;;6.72;67.36;99683.60;107577;1258;66055;-83
2023/02/21 03:58:24;;;;;;;;;;;;;;;6.72;67.26;99682.92;107425;1257;123596;-83
2023/02/21 04:00:52;;;;;;;;;;;;;;;6.73;67.22;99679.98;107588;1257;62120;-84
2023/02/21 04:03:19;;;;;;;;;;;;;;;6.74;66.96;99690.98;107644;1257;123912;-81
2023/02/21 04:05:46;;;;;;;;;;;;;;;6.75;67.05;99688.03;107529;1257;73088;-83
2023/02/21 04:08:13;;;;;;;;;;;;;;;6.75;67.19;99678.27;107698;1257;66801;-82
2023/02/21 04:10:40;;;;;;;;;;;;;;;6.75;67.20;99688.04;107571;1257;124001;-82
2023/02/21 04:13:09;;;;;;;;;;;;;;;6.75;67.14;99685.95;107467;1256;61105;-81
2023/02/21 04:15:37;;;;;;;;;;;;;;;6.74;67.24;99687.86;107856;1256;123788;-82
2023/02/21 04:18:04;;;;;;;;;;;;;;;6.74;67.23;99701.27;107510;1257;74156;-82
2023/02/21 04:20:31;;;;;;;;;;;;;;;6.74;67.25;99688.55;107672;1257;67224;-82
2023/02/21 04:22:58;;;;;;;;;;;;;;;6.74;67.32;99685.59;107336;1258;124385;-82
2023/02/21 04:25:33;;;;;;;;;;;;;;;6.75;67.45;99680.89;107290;1256;60029;-82
2023/02/21 04:28:00;;;;;;;;;;;;;;;6.74;67.44;99694.11;107336;1257;123730;-82
2023/02/21 04:30:27;;;;;;;;;;;;;;;6.74;67.67;99696.91;107614;1261;73172;-82
2023/02/21 04:32:54;;;;;;;;;;;;;;;6.72;67.71;99697.38;107318;1257;123782;-83
2023/02/21 04:35:27;;;;;;;;;;;;;;;6.70;67.79;99698.39;107327;1258;72694;-85
2023/02/21 04:37:56;;;;;;;;;;;;;;;6.69;67.87;99696.09;107382;1260;59892;-84
2023/02/21 04:40:23;;;;;;;;;;;;;;;6.68;67.98;99704.98;107281;1260;123897;-84
2023/02/21 04:42:50;;;;;;;;;;;;;;;6.68;67.86;99695.36;107202;1261;73073;-82
2023/02/21 04:45:24;;;;;;;;;;;;;;;6.68;67.95;99686.83;107325;1257;124452;-82
2023/02/21 04:47:52;;;;;;;;;;;;;;;6.68;67.93;99684.20;107205;1257;72487;-82
2023/02/21 04:50:19;;;;;;;;;;;;;;;6.69;67.97;99699.05;107486;1256;59977;-82
2023/02/21 04:52:46;;;;;;;;;;;;;;;6.69;67.93;99711.79;107275;1257;123521;-82
2023/02/21 04:55:14;;;;;;;;;;;;;;;6.68;67.97;99699.38;107392;1256;73209;-82
2023/02/21 04:57:41;;;;;;;;;;;;;;;6.68;68.12;99700.76;107517;1260;123852;-83
2023/02/21 05:00:11;;;;;;;;;;;;;;;6.67;68.12;99701.45;107346;1257;71432;-84
2023/02/21 05:02:41;;;;;;;;;;;;;;;6.67;68.02;99720.78;107544;1257;61269;-81
2023/02/21 05:05:09;;;;;;;;;;;;;;;6.67;67.98;99703.88;107337;1263;124306;-82
2023/02/21 05:07:45;;;;;;;;;;;;;;;6.68;68.04;99714.54;107384;1257;74722;-83
2023/02/21 05:10:13;;;;;;;;;;;;;;;6.68;67.93;99707.77;108409;1257;124304;-83
2023/02/21 05:12:40;;;;;;;;;;;;;;;6.69;67.89;99715.10;107338;1257;72806;-84
2023/02/21 05:15:08;;;;;;;;;;;;;;;6.71;67.94;99718.27;107408;1257;124019;-90
2023/02/21 05:17:47;;;;;;;;;;;;;;;6.72;67.90;99715.34;107303;1257;59531;-84
2023/02/21 05:20:21;;;;;;;;;;;;;;;6.73;67.88;99720.07;107256;1256;72522;-85
2023/02/21 05:22:50;;;;;;;;;;;;;;;6.72;67.92;99720.92;107034;1256;123592;-84
2023/02/21 05:25:18;;;;;;;;;;;;;;;6.71;67.85;99736.41;107326;1256;72579;-85
2023/02/21 05:27:51;;;;;;;;;;;;;;;6.70;67.70;99727.48;107285;1257;124073;-85
2023/02/21 05:30:22;;;;;;;;;;;;;;;6.68;67.75;99737.41;107345;1257;59974;-87
2023/02/21 05:32:49;;;;;;;;;;;;;;;6.67;67.80;99734.91;107494;1255;124438;-83
2023/02/21 05:35:19;;;;;;;;;;;;;;;6.66;67.77;99741.70;107389;1257;64805;-86
2023/02/21 05:37:49;;;;;;;;;;;;;;;6.66;67.85;99748.48;107268;1256;72937;-88
2023/02/21 05:40:20;;;;;;;;;;;;;;;6.66;67.99;99749.54;107176;1257;124096;-87
2023/02/21 05:42:53;;;;;;;;;;;;;;;6.65;68.14;99753.00;107327;1262;61305;-83
2023/02/21 05:45:20;;;;;;;;;;;;;;;6.63;68.08;99758.90;107615;1257;124368;-83
2023/02/21 05:47:59;;;;;;;;;;;;;;;6.61;68.21;99768.79;107740;1256;65730;-84
2023/02/21 05:50:28;;;;;;;;;;;;;;;6.61;68.28;99767.39;107509;1257;72490;-85
2023/02/21 05:52:56;;;;;;;;;;;;;;;6.61;68.38;99771.91;107341;1257;124342;-84
2023/02/21 05:55:24;;;;;;;;;;;;;;;6.60;68.40;99765.79;107427;1258;61266;-85
2023/02/21 05:57:55;;;;;;;;;;;;;;;6.61;68.38;99772.27;107307;1256;125114;-85
2023/02/21 06:00:23;;;;;;;;;;;;;;;6.62;68.42;99774.70;107392;1258;65747;-85
2023/02/21 06:02:56;;;;;;;;;;;;;;;6.63;68.44;99781.02;107398;1257;124095;-84
2023/02/21 06:05:24;;;;;;;;;;;;;;;6.63;68.38;99782.08;107583;1257;62267;-85
2023/02/21 06:07:51;;;;;;;;;;;;;;;6.65;68.33;99784.73;107293;1257;61051;-86
2023/02/21 06:10:18;;;;;;;;;;;;;;;6.65;68.35;99790.48;107279;1257;124032;-86
2023/02/21 06:12:59;;;;;;;;;;;;;;;6.67;68.33;99796.29;107475;1257;65633;-84
2023/02/21 06:15:26;;;;;;;;;;;;;;;6.67;68.33;99810.25;107169;1257;124377;-85
2023/02/21 06:17:54;;;;;;;;;;;;;;;6.69;68.24;99816.56;107592;1257;59806;-86
2023/02/21 06:20:21;;;;;;;;;;;;;;;6.70;68.21;99814.31;107512;1257;60729;-80
2023/02/21 06:22:48;;;;;;;;;;;;;;;6.71;68.24;99824.98;107757;1257;124739;-82
2023/02/21 06:25:21;;;;;;;;;;;;;;;6.73;68.28;99820.84;107585;1257;65501;-82
2023/02/21 06:27:55;;;;;;;;;;;;;;;6.74;68.36;99825.05;107565;1257;123730;-81
2023/02/21 06:30:27;;;;;;;;;;;;;;;6.73;68.29;99828.18;107592;1257;61353;-81
2023/02/21 06:32:55;;;;;;;;;;;;;;;6.74;68.30;99837.61;107300;1256;123909;-82
2023/02/21 06:35:22;;;;;;;;;;;;;;;6.74;68.23;99843.37;107732;1258;73081;-81
2023/02/21 06:37:51;;;;;;;;;;;;;;;6.75;68.32;99842.34;108838;1257;66560;-83
2023/02/21 06:40:18;;;;;;;;;;;;;;;6.76;68.40;99849.53;107337;1257;124275;-81
2023/02/21 06:42:47;;;;;;;;;;;;;;;6.80;68.44;99849.27;107214;1260;60962;-81
2023/02/21 06:45:16;;;;;;;;;;;;;;;6.83;68.43;99852.84;107248;1257;124617;-82
2023/02/21 06:47:47;;;;;;;;;;;;;;;6.86;68.32;99860.05;107301;1257;73085;-82
2023/02/21 06:50:19;;;;;;;;;;;;;;;6.88;68.37;99865.35;107758;1257;67659;-84
2023/02/21 06:52:48;;;;;;;;;;;;;;;6.92;68.28;99873.64;107573;1257;124749;-82
2023/02/21 06:55:19;;;;;;;;;;;;;;;6.94;68.36;99872.30;107659;1257;61380;-82
2023/02/21 06:57:46;;;;;;;;;;;;;;;6.97;68.32;99873.96;107463;1256;123985;-82
2023/02/21 07:00:15;;;;;;;;;;;;;;;7.01;68.29;99875.80;107656;1255;73287;-82
2023/02/21 07:02:42;;;;;;;;;;;;;;;7.05;68.25;99889.67;107398;1257;65267;-82
2023/02/21 07:05:11;;;;;;;;;;;;;;;7.06;68.23;99896.35;107279;1258;124763;-82
2023/02/21 07:07:37;;;;;;;;;;;;;;;7.05;68.14;99897.70;107412;1257;61574;-82
2023/02/21 07:10:06;;;;;;;;;;;;;;;7.07;68.12;99906.97;107421;1256;124869;-82
2023/02/21 07:12:33;;;;;;;;;;;;;;;7.08;68.20;99910.32;107411;1256;73518;-82
2023/02/21 07:15:00;;;;;;;;;;;;;;;7.12;68.12;99915.14;107246;1257;124134;-82
2023/02/21 07:17:27;;;;;;;;;;;;;;;7.14;68.07;99919.75;107635;1256;71649;-82
2023/02/21 07:19:54;;;;;;;;;;;;;;;7.15;68.03;99930.22;108031;1257;60525;-82
2023/02/21 07:22:25;;;;;;;;;;;;;;;7.17;68.08;99930.79;108028;1256;123697;-83
2023/02/21 07:24:52;;;;;;;;;;;;;;;7.22;68.14;99935.65;107331;1257;73447;-83
2023/02/21 07:27:19;;;;;;;;;;;;;;;7.26;67.99;99940.46;107159;1257;123959;-83
2023/02/21 07:29:47;;;;;;;;;;;;;;;7.28;67.86;99945.39;107451;1256;74258;-82
2023/02/21 07:32:14;;;;;;;;;;;;;;;7.29;67.95;99948.20;107441;1256;60697;-83
2023/02/21 07:34:41;;;;;;;;;;;;;;;7.30;67.95;99945.97;107579;1256;124545;-89
2023/02/21 07:37:08;;;;;;;;;;;;;;;7.35;67.99;99959.70;107515;1257;73264;-81
2023/02/21 07:39:54;;;;;;;;;;;;;;;7.41;67.89;99954.96;107518;1256;124632;-88
2023/02/21 07:42:21;;;;;;;;;;;;;;;7.45;67.97;99960.84;107601;1256;71867;-89
2023/02/21 07:44:57;;;;;;;;;;;;;;;7.49;67.90;99964.95;107342;1257;61307;-89
2023/02/21 07:47:36;;;;;;;;;;;;;;;7.55;67.93;99969.10;107438;1257;61085;-89
2023/02/21 07:50:03;;;;;;;;;;;;;;;7.62;67.90;99970.14;107270;1257;75206;-89
2023/02/21 07:52:30;;;;;;;;;;;;;;;7.70;67.66;99976.44;107285;1256;123676;-89
2023/02/21 07:54:58;;;;;;;;;;;;;;;7.76;67.70;99979.56;107566;1256;71151;-89
2023/02/21 07:57:38;;;;;;;;;;;;;;;7.86;67.62;99981.88;107306;1258;123880;-89
2023/02/21 08:00:06;;;;;;;;;;;;;;;7.92;67.42;99980.81;107646;1255;61688;-83
2023/02/21 08:02:34;;;;;;;;;;;;;;;7.96;67.42;99980.56;107838;1257;72113;-83
2023/02/21 08:05:01;;;;;;;;;;;;;;;8.03;67.31;99984.04;107438;1256;123632;-82
2023/02/21 08:07:29;;;;;;;;;;;;;;;8.08;67.31;99987.28;107242;1255;72519;-88
2023/02/21 08:09:58;;;;;;;;;;;;;;;8.15;67.14;99983.59;107071;1257;124071;-88
2023/02/21 08:12:27;;;;;;;;;;;;;;;8.18;67.04;99993.11;107512;1256;60078;-88
2023/02/21 08:14:54;;;;;;;;;;;;;;;8.20;66.82;99990.36;107533;1257;123930;-87
2023/02/21 08:17:22;;;;;;;;;;;;;;;8.21;66.64;99997.02;107464;1256;65640;-88
2023/02/21 08:19:49;;;;;;;;;;;;;;;8.23;66.69;99996.02;107564;1257;72458;-88
2023/02/21 08:22:17;;;;;;;;;;;;;;;8.27;66.73;99999.95;107743;1257;123542;-82
2023/02/21 08:24:45;;;;;;;;;;;;;;;8.33;66.65;100000.42;107544;1260;59551;-83
2023/02/21 08:27:12;;;;;;;;;;;;;;;8.34;66.42;100008.15;107458;1256;124369;-83
2023/02/21 08:29:39;;;;;;;;;;;;;;;8.31;66.24;100007.73;107320;1256;67087;-82
2023/02/21 08:32:14;;;;;;;;;;;;;;;8.31;66.47;100013.48;107412;1257;71173;-83
2023/02/21 08:34:43;;;;;;;;;;;;;;;8.40;66.46;100014.94;107089;1257;124328;-82
2023/02/21 08:37:16;;;;;;;;;;;;;;;8.47;66.40;100020.71;107162;1257;61138;-83
2023/02/21 08:39:44;;;;;;;;;;;;;;;8.52;66.11;100025.36;107520;1256;124244;-82
2023/02/21 08:42:12;;;;;;;;;;;;;;;8.52;65.97;100033.39;107779;1256;65618;-82
2023/02/21 08:44:41;;;;;;;;;;;;;;;8.53;66.08;100034.65;107673;1256;71245;-82
2023/02/21 08:47:08;;;;;;;;;;;;;;;8.58;65.90;100040.52;107614;1257;124012;-83
2023/02/21 08:49:40;;;;;;;;;;;;;;;8.57;65.70;100038.92;107683;1256;59463;-90
2023/02/21 08:52:07;;;;;;;;;;;;;;;8.53;65.64;100051.42;107495;1256;124018;-90
2023/02/21 08:54:35;;;;;;;;;;;;;;;8.51;65.75;100043.69;107785;1257;65471;-84
2023/02/21 08:57:02;;;;;;;;;;;;;;;8.54;65.83;100048.51;107614;1257;124192;-83
2023/02/21 08:59:32;;;;;;;;;;;;;;;8.56;65.75;100050.28;107710;1257;59798;-90
2023/02/21 09:02:00;;;;;;;;;;;;;;;8.57;65.90;100057.45;107880;1256;59586;-90
2023/02/21 09:04:27;;;;;;;;;;;;;;;8.59;65.60;100063.27;108422;1262;123945;-83
2023/02/21 09:06:54;;;;;;;;;;;;;;;8.51;65.32;100068.70;108179;1256;67289;-90
2023/02/21 09:09:21;;;;;;;;;;;;;;;8.48;65.65;100068.98;107976;1256;124466;-90
2023/02/21 09:11:49;;;;;;;;;;;;;;;8.50;65.57;100077.07;108103;1256;61246;-90
2023/02/21 09:14:16;;;;;;;;;;;;;;;8.47;65.35;100073.68;108180;1256;59669;-90
2023/02/21 09:16:43;;;;;;;;;;;;;;;8.40;65.38;100084.70;107423;1256;386302;-90
2023/02/21 09:19:12;;;;;;;;;;;;;;;8.41;65.40;100089.24;107963;1256;66815;-90
2023/02/21 09:21:46;;;;;;;;;;;;;;;8.43;65.54;100087.39;108033;1255;124461;-83
2023/02/21 09:24:27;;;;;;;;;;;;;;;8.46;65.56;100093.23;107908;1257;59512;-84
2023/02/21 09:27:02;;;;;;;;;;;;;;;8.50;65.44;100100.33;107943;1256;124668;-84
2023/02/21 09:29:37;;;;;;;;;;;;;;;8.53;65.48;100102.66;107871;1257;75927;-81
2023/02/21 09:32:07;;;;;;;;;;;;;;;8.57;65.59;100108.52;108034;1256;69838;-89
2023/02/21 09:34:35;;;;;;;;;;;;;;;8.61;65.50;100115.96;107957;1256;124048;-82
2023/02/21 09:37:05;;;;;;;;;;;;;;;8.64;65.47;100117.27;107888;1256;60760;-82
2023/02/21 09:39:32;;;;;;;;;;;;;;;8.68;65.47;100123.82;107846;1256;123621;-82
2023/02/21 09:42:17;;;;;;;;;;;;;;;8.73;65.32;100124.80;107518;1257;73640;-82
2023/02/21 09:44:51;;;;;;;;;;;;;;;8.71;65.23;100126.52;107468;1256;67113;-82
2023/02/21 09:47:52;;;;;;;;;;;;;;;8.74;65.34;100128.50;107929;1256;123978;-85
2023/02/21 09:50:29;;;;;;;;;;;;;;;8.79;65.29;100141.73;108118;1257;61211;-84
2023/02/21 09:52:56;;;;;;;;;;;;;;;8.78;65.03;100146.08;108747;1257;124737;-82
2023/02/21 09:55:26;;;;;;;;;;;;;;;8.73;65.03;100148.42;108969;1256;72850;-83
2023/02/21 09:57:53;;;;;;;;;;;;;;;8.70;65.13;100156.77;107759;1256;124587;-82
2023/02/21 10:00:21;;;;;;;;;;;;;;;8.69;65.04;100161.96;108021;1260;72700;-82
2023/02/21 10:03:07;;;;;;;;;;;;;;;8.65;65.11;100163.27;107850;1256;61270;-83
2023/02/21 10:05:45;;;;;;;;;;;;;;;8.65;65.17;100171.70;107822;1259;61241;-82
2023/02/21 10:08:18;;;;;;;;;;;;;;;8.69;65.32;100172.83;107828;1255;73181;-82
2023/02/21 10:10:50;;;;;;;;;;;;;;;8.74;65.25;100172.95;107676;1257;125166;-82
2023/02/21 10:13:30;;;;;;;;;;;;;;;8.78;65.14;100179.84;107578;1256;73237;-82
2023/02/21 10:15:58;;;;;;;;;;;;;;;8.80;65.13;100180.95;108872;1256;124059;-83
2023/02/21 10:18:27;;;;;;;;;;;;;;;8.88;65.29;100190.56;108190;1256;59831;-82
2023/02/21 10:20:56;;;;;;;;;;;;;;;8.95;65.11;100191.79;107698;1258;73215;-82
2023/02/21 10:23:42;;;;;;;;;;;;;;;8.96;64.89;100197.56;107374;1262;123756;-82
2023/02/21 10:26:10;;;;;;;;;;;;;;;8.93;64.82;100202.06;107627;1257;72418;-82
2023/02/21 10:28:43;;;;;;;;;;;;;;;8.90;64.91;100209.88;107879;1257;124842;-82
2023/02/21 10:31:12;;;;;;;;;;;;;;;8.88;64.70;100213.85;107991;1256;61237;-82
2023/02/21 10:33:39;;;;;;;;;;;;;;;8.81;64.73;100220.66;107591;1257;124109;-82
2023/02/21 10:36:10;;;;;;;;;;;;;;;8.76;64.72;100215.48;108773;1257;68177;-82
2023/02/21 10:38:40;;;;;;;;;;;;;;;8.78;64.91;100216.95;108880;1257;72731;-82
2023/02/21 10:41:07;;;;;;;;;;;;;;;8.86;65.00;100217.29;107445;1256;123897;-83
2023/02/21 10:43:37;;;;;;;;;;;;;;;8.93;64.78;100227.61;107929;1256;59266;-83
2023/02/21 10:46:23;;;;;;;;;;;;;;;9.00;64.85;100227.75;107594;1262;124595;-82
2023/02/21 10:48:51;;;;;;;;;;;;;;;9.12;64.91;100229.08;107757;1257;66393;-83
2023/02/21 10:51:31;;;;;;;;;;;;;;;9.25;64.78;100230.08;107549;1256;127066;-83
2023/02/21 10:54:18;;;;;;;;;;;;;;;9.40;64.80;100229.86;107608;1256;60984;-83
2023/02/21 10:56:48;;;;;;;;;;;;;;;9.41;64.42;100236.36;107822;1256;60283;-83
2023/02/21 10:59:36;;;;;;;;;;;;;;;9.42;64.43;100237.44;107861;1256;124008;-82
2023/02/21 11:02:03;;;;;;;;;;;;;;;9.42;64.22;100241.99;108894;1256;67131;-83
2023/02/21 11:04:37;;;;;;;;;;;;;;;9.36;64.10;100246.95;107948;1257;124033;-82
2023/02/21 11:07:08;;;;;;;;;;;;;;;9.32;64.04;100248.97;107827;1256;61231;-83
2023/02/21 11:09:40;;;;;;;;;;;;;;;9.32;64.13;100251.95;107710;1256;124173;-82
2023/02/21 11:12:50;;;;;;;;;;;;;;;9.32;64.04;100257.73;108768;1257;73351;-83
2023/02/21 11:15:17;;;;;;;;;;;;;;;9.27;63.86;100263.05;107557;1257;65550;-83
2023/02/21 11:17:46;;;;;;;;;;;;;;;9.22;63.95;100259.27;107819;1257;73155;-82
2023/02/21 11:20:18;;;;;;;;;;;;;;;9.22;64.02;100262.40;107761;1258;60029;-82
2023/02/21 11:22:51;;;;;;;;;;;;;;;9.24;64.05;100262.62;107678;1256;124281;-82
2023/02/21 11:25:30;;;;;;;;;;;;;;;9.21;63.88;100265.00;107886;1256;74482;-83
2023/02/21 11:27:58;;;;;;;;;;;;;;;9.15;63.99;100267.33;107718;1257;123889;-82
2023/02/21 11:30:35;;;;;;;;;;;;;;;9.23;64.08;100269.59;107954;1256;71424;-82
2023/02/21 11:33:05;;;;;;;;;;;;;;;9.28;63.75;100272.86;108050;1257;61210;-82
2023/02/21 11:35:43;;;;;;;;;;;;;;;9.31;63.86;100279.41;107988;1256;124177;-83
2023/02/21 11:38:30;;;;;;;;;;;;;;;9.30;63.44;100279.39;107980;1256;75230;-83
2023/02/21 11:40:57;;;;;;;;;;;;;;;9.18;63.34;100288.92;107572;1257;124234;-83
2023/02/21 11:43:32;;;;;;;;;;;;;;;9.07;63.41;100294.96;107556;1256;74082;-82
2023/02/21 11:46:20;;;;;;;;;;;;;;;9.06;63.71;100299.14;107455;1256;124085;-83
2023/02/21 11:48:55;;;;;;;;;;;;;;;9.07;63.65;100293.55;107664;1259;59874;-82
2023/02/21 11:51:31;;;;;;;;;;;;;;;9.06;63.66;100295.29;107608;1257;124485;-83
2023/02/21 11:53:59;;;;;;;;;;;;;;;9.11;63.64;100296.99;107783;1256;65760;-83
2023/02/21 11:56:34;;;;;;;;;;;;;;;9.15;63.59;100297.96;107731;1256;72383;-82
2023/02/21 11:59:05;;;;;;;;;;;;;;;9.11;63.35;100300.15;107821;1256;124466;-83
2023/02/21 12:02:11;;;;;;;;;;;;;;;9.13;63.63;100302.98;108142;1257;61017;-83
2023/02/21 12:04:42;;;;;;;;;;;;;;;9.20;63.68;100309.27;108002;1256;124412;-83
2023/02/21 12:07:15;;;;;;;;;;;;;;;9.31;63.74;100305.32;108013;1256;65859;-83
2023/02/21 12:09:51;;;;;;;;;;;;;;;9.45;63.72;100310.18;108145;1257;124874;-90
2023/02/21 12:12:36;;;;;;;;;;;;;;;9.52;63.41;100317.89;108408;1257;59491;-90
2023/02/21 12:15:03;;;;;;;;;;;;;;;9.53;63.17;100314.06;108381;1256;59840;-83
2023/02/21 12:17:33;;;;;;;;;;;;;;;9.57;63.13;100323.23;108179;1256;124215;-83
2023/02/21 12:20:07;;;;;;;;;;;;;;;9.61;63.21;100327.88;108178;1256;67652;-83
2023/02/21 12:22:35;;;;;;;;;;;;;;;9.66;63.04;100330.80;108015;1260;124437;-82
2023/02/21 12:25:06;;;;;;;;;;;;;;;9.63;62.61;100333.36;108176;1256;59483;-82
2023/02/21 12:27:54;;;;;;;;;;;;;;;9.56;62.61;100336.36;107918;1258;124166;-83
2023/02/21 12:30:40;;;;;;;;;;;;;;;9.54;62.76;100336.16;108028;1256;74686;-82
2023/02/21 12:33:10;;;;;;;;;;;;;;;9.62;62.74;100341.05;108062;1256;66776;-83
2023/02/21 12:36:01;;;;;;;;;;;;;;;9.68;62.76;100341.02;107938;1256;72266;-83
2023/02/21 12:38:34;;;;;;;;;;;;;;;9.70;62.66;100344.20;107603;1257;59336;-83
2023/02/21 12:41:21;;;;;;;;;;;;;;;9.70;62.47;100343.16;107654;1256;124365;-83
2023/02/21 12:47:26;;;;;;;;;;;;;;;9.81;62.74;100345.30;107878;1256;123988;-83
2023/02/21 12:50:08;;;;;;;;;;;;;;;9.86;62.56;100347.54;107872;1256;70393;-89
2023/02/21 12:52:46;;;;;;;;;;;;;;;9.79;62.30;100350.02;107673;1257;124007;-89
2023/02/21 12:55:21;;;;;;;;;;;;;;;9.71;62.21;100355.27;107856;1256;60372;-90
2023/02/21 12:57:48;;;;;;;;;;;;;;;9.68;62.09;100352.75;107833;1257;124203;-89
2023/02/21 13:00:40;;;;;;;;;;;;;;;9.66;62.14;100350.60;107876;1262;65885;-89
2023/02/21 13:03:10;;;;;;;;;;;;;;;9.65;62.32;100353.90;108039;1256;72448;-90
2023/02/21 13:05:43;;;;;;;;;;;;;;;9.63;62.19;100356.48;107912;1256;59433;-90
2023/02/21 13:08:21;;;;;;;;;;;;;;;9.62;62.19;100352.96;108012;1256;60126;-90
2023/02/21 13:10:50;;;;;;;;;;;;;;;9.69;62.39;100359.25;107772;1256;124687;-89
2023/02/21 13:13:19;;;;;;;;;;;;;;;9.74;62.22;100357.59;107753;1257;65746;-90
2023/02/21 13:15:46;;;;;;;;;;;;;;;9.76;62.11;100361.50;107615;1256;124285;-90
2023/02/21 13:18:13;;;;;;;;;;;;;;;9.70;61.94;100366.09;107832;1256;59958;-89
2023/02/21 13:20:42;;;;;;;;;;;;;;;9.66;62.11;100365.66;107934;1259;60133;-90
2023/02/21 13:23:28;;;;;;;;;;;;;;;9.67;62.12;100370.77;107827;1257;72385;-90
2023/02/21 13:26:03;;;;;;;;;;;;;;;9.60;61.94;100375.34;107868;1257;65778;-90
2023/02/21 13:28:30;;;;;;;;;;;;;;;9.53;61.83;100373.79;107804;1256;126336;-90
2023/02/21 13:31:05;;;;;;;;;;;;;;;9.50;61.90;100375.98;107790;1257;61254;-90
2023/02/21 13:33:43;;;;;;;;;;;;;;;9.50;61.91;100380.02;107701;1256;124248;-89
2023/02/21 13:36:19;;;;;;;;;;;;;;;9.52;62.00;100386.72;107606;1255;74987;-90
2023/02/21 13:39:02;;;;;;;;;;;;;;;9.52;61.86;100387.95;107641;1256;66807;-90
2023/02/21 13:41:41;;;;;;;;;;;;;;;9.48;61.89;100395.89;107709;1257;123988;-90
2023/02/21 13:44:17;;;;;;;;;;;;;;;9.45;61.90;100396.17;107738;1255;60189;-90
2023/02/21 13:46:46;;;;;;;;;;;;;;;9.47;61.85;100400.25;107501;1256;123992;-84
2023/02/21 13:49:32;;;;;;;;;;;;;;;9.50;62.00;100407.52;107643;1256;74488;-84
2023/02/21 13:52:15;;;;;;;;;;;;;;;9.54;61.94;100411.82;107813;1257;124762;-84
2023/02/21 13:55:01;;;;;;;;;;;;;;;9.52;61.86;100413.51;108112;1256;73222;-84
2023/02/21 13:57:31;;;;;;;;;;;;;;;9.52;61.78;100413.35;107823;1256;124086;-83
2023/02/21 14:03:24;;;;;;;;;;;;;;;9.46;61.70;100416.00;107693;1257;74601;-90
2023/02/21 14:05:54;;;;;;;;;;;;;;;9.47;61.59;100426.02;107884;1257;66893;-90
2023/02/21 14:08:28;;;;;;;;;;;;;;;9.42;61.33;100428.16;108069;1256;70300;-90
2023/02/21 14:10:55;;;;;;;;;;;;;;;9.33;61.46;100431.44;107709;1255;124218;-90
2023/02/21 14:13:28;;;;;;;;;;;;;;;9.31;61.63;100441.73;107740;1256;61228;-89
2023/02/21 14:16:14;;;;;;;;;;;;;;;9.33;61.65;100447.55;107707;1256;124119;-90
2023/02/21 14:18:52;;;;;;;;;;;;;;;9.30;61.37;100452.39;107597;1256;66090;-88
2023/02/21 14:21:31;;;;;;;;;;;;;;;9.21;61.31;100455.14;107679;1256;73217;-89
2023/02/21 14:24:02;;;;;;;;;;;;;;;9.14;61.42;100464.07;107735;1256;61462;-88
2023/02/21 14:26:41;;;;;;;;;;;;;;;9.14;61.52;100462.30;107676;1259;60016;-88
2023/02/21 14:29:10;;;;;;;;;;;;;;;9.11;61.56;100470.10;107833;1257;123913;-90
2023/02/21 14:32:00;;;;;;;;;;;;;;;8.99;61.51;100473.29;107808;1257;67358;-88
2023/02/21 14:34:38;;;;;;;;;;;;;;;8.87;61.66;100480.30;107762;1255;123954;-88
2023/02/21 14:37:17;;;;;;;;;;;;;;;8.77;61.82;100490.17;107783;1257;59569;-82
2023/02/21 14:39:48;;;;;;;;;;;;;;;8.62;61.74;100492.57;107748;1256;124840;-82
2023/02/21 14:42:18;;;;;;;;;;;;;;;8.50;62.00;100499.20;107690;1257;73301;-88
2023/02/21 14:45:13;;;;;;;;;;;;;;;8.43;62.23;100509.48;107708;1255;65902;-88
2023/02/21 14:47:45;;;;;;;;;;;;;;;8.35;62.43;100513.05;108353;1257;124025;-88
2023/02/21 14:50:15;;;;;;;;;;;;;;;8.29;62.50;100520.92;108527;1255;61401;-89
2023/02/21 14:53:01;;;;;;;;;;;;;;;8.24;62.66;100527.94;108402;1257;124046;-88
2023/02/21 14:55:30;;;;;;;;;;;;;;;8.20;62.65;100530.61;108318;1257;74407;-88
2023/02/21 14:58:16;;;;;;;;;;;;;;;8.16;62.93;100532.76;108164;1256;124508;-89
2023/02/21 15:00:52;;;;;;;;;;;;;;;8.10;63.06;100542.21;108001;1257;72743;-90
2023/02/21 15:03:20;;;;;;;;;;;;;;;8.06;63.15;100544.33;107895;1256;59271;-89
2023/02/21 15:05:59;;;;;;;;;;;;;;;8.04;63.28;100549.49;107769;1255;123911;-90
2023/02/21 15:08:26;;;;;;;;;;;;;;;8.02;63.44;100551.36;107823;1256;75183;-89
2023/02/21 15:11:05;;;;;;;;;;;;;;;7.97;63.40;100553.33;107916;1256;123968;-89
2023/02/21 15:13:32;;;;;;;;;;;;;;;7.94;63.48;100551.48;108859;1257;72648;-82
2023/02/21 15:16:01;;;;;;;;;;;;;;;7.93;63.53;100559.13;108804;1257;124571;-82
2023/02/21 15:18:30;;;;;;;;;;;;;;;7.90;63.54;100564.96;108820;1257;60677;-82
2023/02/21 15:21:02;;;;;;;;;;;;;;;7.88;63.70;100567.02;109070;1255;74349;-82
2023/02/21 15:23:42;;;;;;;;;;;;;;;7.87;63.72;100572.02;107529;1259;123745;-89
2023/02/21 15:26:23;;;;;;;;;;;;;;;7.82;63.86;100570.45;108076;1257;72559;-89